This is the latest recevied weather packets stored in our database for station/object DF7ER-12. If no packets are shown the sender has not sent any weather packets the latest 10 day(s).
| Time | Temp. | Humidity | Pressure | Rain* | Wind** | Luminosity | Snow |
|---|---|---|---|---|---|---|---|
| 1777292198 | 18.89° C | 46% | 1012.8 hPa | - | - | - | - |
| 1777291898 | 20° C | 46% | 1013 hPa | - | - | - | - |
| 1777291597 | 18.89° C | 48% | 1013 hPa | - | - | - | - |
| 1777291298 | 18.33° C | 48% | 1013 hPa | - | - | - | - |
| 1777290998 | 20° C | 49% | 1013.1 hPa | - | - | - | - |
| 1777290698 | 20.56° C | 48% | 1013.1 hPa | - | - | - | - |
| 1777290398 | 19.44° C | 50% | 1013.1 hPa | - | - | - | - |
| 1777290098 | 17.78° C | 49% | 1013 hPa | - | - | - | - |
| 1777289797 | 17.22° C | 49% | 1013 hPa | - | - | - | - |
| 1777289498 | 18.89° C | 51% | 1013.2 hPa | - | - | - | - |
| 1777289198 | 18.89° C | 50% | 1013.2 hPa | - | - | - | - |
| 1777288897 | 18.33° C | 52% | 1013.2 hPa | - | - | - | - |
| 1777288268 | 20° C | 50% | 1013.3 hPa | - | - | - | - |
| 1777287968 | 20° C | 51% | 1013.3 hPa | - | - | - | - |
| 1777287669 | 18.33° C | 52% | 1013.3 hPa | - | - | - | - |
| 1777287369 | 20° C | 49% | 1013.4 hPa | - | - | - | - |
| 1777287068 | 19.44° C | 52% | 1013.4 hPa | - | - | - | - |
| 1777286768 | 18.33° C | 53% | 1013.4 hPa | - | - | - | - |
| 1777286468 | 17.78° C | 52% | 1013.4 hPa | - | - | - | - |
| 1777286169 | 17.78° C | 53% | 1013.5 hPa | - | - | - | - |
| 1777285868 | 18.89° C | 52% | 1013.6 hPa | - | - | - | - |
| 1777285568 | 16.67° C | 54% | 1013.6 hPa | - | - | - | - |
| 1777285268 | 17.22° C | 54% | 1013.7 hPa | - | - | - | - |
| 1777284968 | 18.89° C | 53% | 1013.8 hPa | - | - | - | - |
| 1777284669 | 18.33° C | 55% | 1013.6 hPa | - | - | - | - |
* Rain since midnight (hover to see other rain measurements)
** Current wind speed in m/s (hover to see current wind gust speed)